Airfield :
LOGIN :

Register | Disclaimer

   EN    FR    IT 

 










Legend :    VFR   Marginal VFR   IFR   Intensive IFR   Very Intensive IFR
Visi :
Ceiling :
>= 8 km
>= 3000ft
5 to 8 km
1000 to 3000 ft
1500m to 5 km
500 to 1000 ft
800 to 1500m
200 to 500 ft
< 800m
< 200 ft
Symbols :   Thunderstorms  Fog  Heavy snow  Heavy precipitations  Wind > 20 kt
SIGMETs :     Misc.  Thunderstorms  Icing  Turbulence  Mountain Waves  Volcanic Ashes







- Airport Elevation : 404 ft
- IATA code : WRO


EPWR - Wroclaw

CURRENT METAR :
  • 251200Z 26010KT 220V290 CAVOK 17/03 Q1003

EXPIRED METARs :
  • 251130Z 25014KT 210V270 CAVOK 18/02 Q1003
  • 251100Z 24012KT 210V270 CAVOK 17/04 Q1003
  • 251030Z 22010KT CAVOK 16/04 Q1003
  • 251000Z 23010KT 9999 FEW046 15/03 Q1003
  • 250930Z 23014KT 200V260 CAVOK 15/04 Q1003

TAF TAF EPWR
Valid from the 25 at 12:00 until the 26 at 12:00 UTC


251130Z 2512/2612 28010KT CAVOK
TEMPO 2512/2517 28016G28KT
PROB30
TEMPO 2512/2518 SHRA SCT040CB
BECMG 2520/2523 VRB02KT -RA
TEMPO 2521/2612 3500 RA BR BKN008 BKN018
No reported NOTAMs for that airfield.



MET'MAP, your aeronautical weather chart ! - Copyright ORBIFLY December 2007 - Disclaimer

ORBIFLY MET'MAP TEAM :

Programming & Development : Alexandra Zaïnal
Concept & Development : Baudouin d'Aumeries
Co-Development & Prog : Marc-Olivier Méhu
Technical & hardware support : Manuel Goepfert

Contact : metmap@orbifly.com




SOURCES & CREDITS :

   NOAA